Balkar Trust — 3FXS7 — position and weather

sailwx.info

Track history (hours):
 
Tides and Currents Weather Stations Pressure Air Temp Water Temp Dewpoint Dewpoint Depression Visibility Wind Speed Wind Dir Waves Ship Positions

Balkar Trust

Last reported at 2017-Jan-12 15:33 UTC. Time now 2017-Jan-17 13:08 UTC.
Position N 37°25' E 025°52'.

Length 185 m; draft 9.3 m.

Type: Cargo ship. MMSI: 372927000.

Date/timePositionNaut miles runAvg speedWind from/ knotsBaromVisibWave heightAir tempDewpointWater temp
2017-Jan-12 15:33N 37°25' E 025°52'5713.5
2017-Jan-12 11:19N 38°23' E 025°44'5613.3
2017-Jan-12 07:04N 39°19' E 025°41'  
2017-Jan-09 13:31N 46°15' E 030°55'1313.5
2017-Jan-09 12:33N 46°28' E 030°55'20 8.9
2017-Jan-09 10:16N 46°35' E 031°23'7 9.5
2017-Jan-09 09:33N 46°35' E 031°33'8 8.2
2017-Jan-09 08:33N 46°36' E 031°45'8 8.4
2017-Jan-09 07:33N 46°40' E 031°56'8 7.7
2017-Jan-09 06:33N 46°47' E 031°53'8 8.2
2017-Jan-09 05:33N 46°54' E 032°00'3 2.7
2017-Jan-09 04:31N 46°56' E 032°00'0 0.0
2017-Jan-09 03:31N 46°56' E 032°00'0 0.0
2017-Jan-09 02:31N 46°56' E 032°00'0 0.0
2017-Jan-09 01:31N 46°56' E 032°00'0 0.0
2017-Jan-09 00:31N 46°56' E 032°00'0 0.0
2017-Jan-08 23:31N 46°56' E 032°00'0 0.0
2017-Jan-08 22:31N 46°56' E 032°00'0 0.0
2017-Jan-08 21:31N 46°56' E 032°00'0 0.0
2017-Jan-08 20:31N 46°56' E 032°00'0 0.0
2017-Jan-08 19:31N 46°56' E 032°00'0 0.0
2017-Jan-08 18:31N 46°56' E 032°00'0 0.0
2017-Jan-08 17:31N 46°56' E 032°00'0 0.0
2017-Jan-08 16:31N 46°56' E 032°00'0 0.0
2017-Jan-08 15:31N 46°56' E 032°00'0 0.0
2017-Jan-08 14:31N 46°56' E 032°00'0 0.0
2017-Jan-08 13:31N 46°56' E 032°00'0 0.4
2017-Jan-08 12:31N 46°56' E 032°01'2 2.5
2017-Jan-08 11:33N 46°56' E 031°57'0 0.1
2017-Jan-08 10:33N 46°56' E 031°57'0 0.0
2017-Jan-08 09:33N 46°56' E 031°57'0 0.0
2017-Jan-08 08:33N 46°56' E 031°57'0 0.0
2017-Jan-08 07:33N 46°56' E 031°57'0 0.0
2017-Jan-08 06:33N 46°56' E 031°57'0 0.0
2017-Jan-08 05:33N 46°56' E 031°57'0 0.0
2017-Jan-08 04:33N 46°56' E 031°57'0 0.0
2017-Jan-08 03:33N 46°56' E 031°57'0 0.0
2017-Jan-08 02:33N 46°56' E 031°57'0 0.0
2017-Jan-08 01:33N 46°56' E 031°57'0 0.0
2017-Jan-08 00:33N 46°56' E 031°57'0 0.0
2017-Jan-07 23:33N 46°56' E 031°57'0 0.0
2017-Jan-07 22:33N 46°56' E 031°57'0 0.0
2017-Jan-07 21:33N 46°56' E 031°57'0 0.0
2017-Jan-07 20:33N 46°56' E 031°57'0 0.0
2017-Jan-07 19:33N 46°56' E 031°57'0 0.0
2017-Jan-07 18:33N 46°56' E 031°57'0 0.0
2017-Jan-07 17:33N 46°56' E 031°57'0 0.0
2017-Jan-07 16:30N 46°56' E 031°57'0 0.0
2017-Jan-07 15:33N 46°56' E 031°57'0 0.0
2017-Jan-07 14:33N 46°56' E 031°57'0 0.0
2017-Jan-07 13:33N 46°56' E 031°57'0 0.0
2017-Jan-07 12:33N 46°56' E 031°57'0 0.0
2017-Jan-07 11:33N 46°56' E 031°57'0 0.0
2017-Jan-07 10:33N 46°56' E 031°57'0 0.0
2017-Jan-07 09:33N 46°56' E 031°57'0 0.0
2017-Jan-07 08:30N 46°56' E 031°57'0 0.0
2017-Jan-07 07:30N 46°56' E 031°57'0 0.0
2017-Jan-07 06:30N 46°56' E 031°57'0 0.0
2017-Jan-07 05:30N 46°56' E 031°57'0 0.0
2017-Jan-07 04:30N 46°56' E 031°57'0 0.0
2017-Jan-07 03:24N 46°56' E 031°57'0 0.0
2017-Jan-07 02:30N 46°56' E 031°57'0 0.0
2017-Jan-07 01:30N 46°56' E 031°57'0 0.0
2017-Jan-07 00:30N 46°56' E 031°57'0 0.0
2017-Jan-06 23:30N 46°56' E 031°57'0 0.0
2017-Jan-06 22:30N 46°56' E 031°57'0 0.0
2017-Jan-06 21:30N 46°56' E 031°57'0 0.0
2017-Jan-06 20:33N 46°56' E 031°57'0 0.0
2017-Jan-06 19:33N 46°56' E 031°57'0 0.0
2017-Jan-06 18:30N 46°56' E 031°57'0 0.0
2017-Jan-06 17:30N 46°56' E 031°57'0 0.0
2017-Jan-06 16:30N 46°56' E 031°57'0 0.0
2017-Jan-06 15:30N 46°56' E 031°57'0 0.0
2017-Jan-06 14:30N 46°56' E 031°57'0 0.0
2017-Jan-06 13:30N 46°56' E 031°57'0 0.0
2017-Jan-06 12:30N 46°56' E 031°57'0 0.0
2017-Jan-06 11:30N 46°56' E 031°57'0 0.0
2017-Jan-06 10:30N 46°56' E 031°57'0 0.0
2017-Jan-06 09:30N 46°56' E 031°57'0 0.0
2017-Jan-06 08:33N 46°56' E 031°57'0 0.0
2017-Jan-06 07:33N 46°56' E 031°57'0 0.0
2017-Jan-06 06:30N 46°56' E 031°57'0 0.0
2017-Jan-06 05:30N 46°56' E 031°57'0 0.0
2017-Jan-06 04:30N 46°56' E 031°57'0 0.0
2017-Jan-06 03:30N 46°56' E 031°57'0 0.0
2017-Jan-06 02:30N 46°56' E 031°57'0 0.0
2017-Jan-06 01:30N 46°56' E 031°57'0 0.0
2017-Jan-06 00:30N 46°56' E 031°57'0 0.0
2017-Jan-05 23:30N 46°56' E 031°57'0 0.0
2017-Jan-05 22:30N 46°56' E 031°57'0 0.0
2017-Jan-05 21:30N 46°56' E 031°57'0 0.0
2017-Jan-05 20:30N 46°56' E 031°57'0 0.0
2017-Jan-05 19:18N 46°56' E 031°57'0 0.0
2017-Jan-05 18:30N 46°56' E 031°57'0 0.0
2017-Jan-05 17:33N 46°56' E 031°57'0 0.0
2017-Jan-05 16:33N 46°56' E 031°57'0 0.0
2017-Jan-05 15:33N 46°56' E 031°57'0 0.0
2017-Jan-05 14:33N 46°56' E 031°57'0 0.0
2017-Jan-05 13:33N 46°56' E 031°57'0 0.0
2017-Jan-05 12:33N 46°56' E 031°57'0 0.0
2017-Jan-05 11:33N 46°56' E 031°57'0 0.0
2017-Jan-05 10:33N 46°56' E 031°57'0 0.0
2017-Jan-05 09:33N 46°56' E 031°57'0 0.0
2017-Jan-05 08:33N 46°56' E 031°57'0 0.0
2017-Jan-05 07:33N 46°56' E 031°57'0 0.0
2017-Jan-05 06:33N 46°56' E 031°57'0 0.0
2017-Jan-05 05:33N 46°56' E 031°57'0 0.0
2017-Jan-05 04:33N 46°56' E 031°57'0 0.0
2017-Jan-05 03:30N 46°56' E 031°57'0 0.0
2017-Jan-05 02:30N 46°56' E 031°57'0 0.0
2017-Jan-05 01:30N 46°56' E 031°57'0 0.0
2017-Jan-05 00:30N 46°56' E 031°57'0 0.0
2017-Jan-04 23:30N 46°56' E 031°57'0 0.0
2017-Jan-04 22:30N 46°56' E 031°57'0 0.0
2017-Jan-04 21:30N 46°56' E 031°57'0 0.0
2017-Jan-03 11:33N 46°56' E 031°57'0 0.0
2017-Jan-03 10:33N 46°56' E 031°57'0 0.0
2017-Jan-03 09:33N 46°56' E 031°57'0 0.0
2017-Jan-03 08:33N 46°56' E 031°57'0 0.0
2017-Jan-03 07:33N 46°56' E 031°57'0 0.0
2017-Jan-03 06:33N 46°56' E 031°57'0 0.0
2017-Jan-03 05:33N 46°56' E 031°57'0 0.0
2017-Jan-03 04:33N 46°56' E 031°57'0 0.0
2017-Jan-03 03:33N 46°56' E 031°57'0 0.0
2017-Jan-03 02:33N 46°56' E 031°57'0 0.0
2017-Jan-03 01:33N 46°56' E 031°57'0 0.0
2017-Jan-03 00:33N 46°56' E 031°57'0 0.0
2017-Jan-02 23:33N 46°56' E 031°57'0 0.0
2017-Jan-02 22:33N 46°56' E 031°57'0 0.0
2017-Jan-02 21:33N 46°56' E 031°57'0 0.0
2017-Jan-02 20:33N 46°56' E 031°57'0 0.0
2017-Jan-02 19:33N 46°56' E 031°57'0 0.0
2017-Jan-02 18:33N 46°56' E 031°57'0 0.0
2017-Jan-02 17:33N 46°56' E 031°57'0 0.0
2017-Jan-02 16:33N 46°56' E 031°57'  
Track history (hours):
 
Tides and Currents Weather Stations Pressure Air Temp Water Temp Dewpoint Dewpoint Depression Visibility Wind Speed Wind Dir Waves Ship Positions

Balkar Trust

Last reported at 2017-Jan-12 15:33 UTC. Time now 2017-Jan-17 13:08 UTC.
Position N 37°25' E 025°52'.

Length 185 m; draft 9.3 m.

Type: Cargo ship. MMSI: 372927000.

Date/timePositionNaut miles runAvg speedWind from/ knotsBaromVisibWave heightAir tempDewpointWater temp
2017-Jan-12 15:33N 37°25' E 025°52'5713.5
2017-Jan-12 11:19N 38°23' E 025°44'5613.3
2017-Jan-12 07:04N 39°19' E 025°41'  
2017-Jan-09 13:31N 46°15' E 030°55'1313.5
2017-Jan-09 12:33N 46°28' E 030°55'20 8.9
2017-Jan-09 10:16N 46°35' E 031°23'7 9.5
2017-Jan-09 09:33N 46°35' E 031°33'8 8.2
2017-Jan-09 08:33N 46°36' E 031°45'8 8.4
2017-Jan-09 07:33N 46°40' E 031°56'8 7.7
2017-Jan-09 06:33N 46°47' E 031°53'8 8.2
2017-Jan-09 05:33N 46°54' E 032°00'3 2.7
2017-Jan-09 04:31N 46°56' E 032°00'0 0.0
2017-Jan-09 03:31N 46°56' E 032°00'0 0.0
2017-Jan-09 02:31N 46°56' E 032°00'0 0.0
2017-Jan-09 01:31N 46°56' E 032°00'0 0.0
2017-Jan-09 00:31N 46°56' E 032°00'0 0.0
2017-Jan-08 23:31N 46°56' E 032°00'0 0.0
2017-Jan-08 22:31N 46°56' E 032°00'0 0.0
2017-Jan-08 21:31N 46°56' E 032°00'0 0.0
2017-Jan-08 20:31N 46°56' E 032°00'0 0.0
2017-Jan-08 19:31N 46°56' E 032°00'0 0.0
2017-Jan-08 18:31N 46°56' E 032°00'0 0.0
2017-Jan-08 17:31N 46°56' E 032°00'0 0.0
2017-Jan-08 16:31N 46°56' E 032°00'0 0.0
2017-Jan-08 15:31N 46°56' E 032°00'0 0.0
2017-Jan-08 14:31N 46°56' E 032°00'0 0.0
2017-Jan-08 13:31N 46°56' E 032°00'0 0.4
2017-Jan-08 12:31N 46°56' E 032°01'2 2.5
2017-Jan-08 11:33N 46°56' E 031°57'0 0.1
2017-Jan-08 10:33N 46°56' E 031°57'0 0.0
2017-Jan-08 09:33N 46°56' E 031°57'0 0.0
2017-Jan-08 08:33N 46°56' E 031°57'0 0.0
2017-Jan-08 07:33N 46°56' E 031°57'0 0.0
2017-Jan-08 06:33N 46°56' E 031°57'0 0.0
2017-Jan-08 05:33N 46°56' E 031°57'0 0.0
2017-Jan-08 04:33N 46°56' E 031°57'0 0.0
2017-Jan-08 03:33N 46°56' E 031°57'0 0.0
2017-Jan-08 02:33N 46°56' E 031°57'0 0.0
2017-Jan-08 01:33N 46°56' E 031°57'0 0.0
2017-Jan-08 00:33N 46°56' E 031°57'0 0.0
2017-Jan-07 23:33N 46°56' E 031°57'0 0.0
2017-Jan-07 22:33N 46°56' E 031°57'0 0.0
2017-Jan-07 21:33N 46°56' E 031°57'0 0.0
2017-Jan-07 20:33N 46°56' E 031°57'0 0.0
2017-Jan-07 19:33N 46°56' E 031°57'0 0.0
2017-Jan-07 18:33N 46°56' E 031°57'0 0.0
2017-Jan-07 17:33N 46°56' E 031°57'0 0.0
2017-Jan-07 16:30N 46°56' E 031°57'0 0.0
2017-Jan-07 15:33N 46°56' E 031°57'0 0.0
2017-Jan-07 14:33N 46°56' E 031°57'0 0.0
2017-Jan-07 13:33N 46°56' E 031°57'0 0.0
2017-Jan-07 12:33N 46°56' E 031°57'0 0.0
2017-Jan-07 11:33N 46°56' E 031°57'0 0.0
2017-Jan-07 10:33N 46°56' E 031°57'0 0.0
2017-Jan-07 09:33N 46°56' E 031°57'0 0.0
2017-Jan-07 08:30N 46°56' E 031°57'0 0.0
2017-Jan-07 07:30N 46°56' E 031°57'0 0.0
2017-Jan-07 06:30N 46°56' E 031°57'0 0.0
2017-Jan-07 05:30N 46°56' E 031°57'0 0.0
2017-Jan-07 04:30N 46°56' E 031°57'0 0.0
2017-Jan-07 03:24N 46°56' E 031°57'0 0.0
2017-Jan-07 02:30N 46°56' E 031°57'0 0.0
2017-Jan-07 01:30N 46°56' E 031°57'0 0.0
2017-Jan-07 00:30N 46°56' E 031°57'0 0.0
2017-Jan-06 23:30N 46°56' E 031°57'0 0.0
2017-Jan-06 22:30N 46°56' E 031°57'0 0.0
2017-Jan-06 21:30N 46°56' E 031°57'0 0.0
2017-Jan-06 20:33N 46°56' E 031°57'0 0.0
2017-Jan-06 19:33N 46°56' E 031°57'0 0.0
2017-Jan-06 18:30N 46°56' E 031°57'0 0.0
2017-Jan-06 17:30N 46°56' E 031°57'0 0.0
2017-Jan-06 16:30N 46°56' E 031°57'0 0.0
2017-Jan-06 15:30N 46°56' E 031°57'0 0.0
2017-Jan-06 14:30N 46°56' E 031°57'0 0.0
2017-Jan-06 13:30N 46°56' E 031°57'0 0.0
2017-Jan-06 12:30N 46°56' E 031°57'0 0.0
2017-Jan-06 11:30N 46°56' E 031°57'0 0.0
2017-Jan-06 10:30N 46°56' E 031°57'0 0.0
2017-Jan-06 09:30N 46°56' E 031°57'0 0.0
2017-Jan-06 08:33N 46°56' E 031°57'0 0.0
2017-Jan-06 07:33N 46°56' E 031°57'0 0.0
2017-Jan-06 06:30N 46°56' E 031°57'0 0.0
2017-Jan-06 05:30N 46°56' E 031°57'0 0.0
2017-Jan-06 04:30N 46°56' E 031°57'0 0.0
2017-Jan-06 03:30N 46°56' E 031°57'0 0.0
2017-Jan-06 02:30N 46°56' E 031°57'0 0.0
2017-Jan-06 01:30N 46°56' E 031°57'0 0.0
2017-Jan-06 00:30N 46°56' E 031°57'0 0.0
2017-Jan-05 23:30N 46°56' E 031°57'0 0.0
2017-Jan-05 22:30N 46°56' E 031°57'0 0.0
2017-Jan-05 21:30N 46°56' E 031°57'0 0.0
2017-Jan-05 20:30N 46°56' E 031°57'0 0.0
2017-Jan-05 19:18N 46°56' E 031°57'0 0.0
2017-Jan-05 18:30N 46°56' E 031°57'0 0.0
2017-Jan-05 17:33N 46°56' E 031°57'0 0.0
2017-Jan-05 16:33N 46°56' E 031°57'0 0.0
2017-Jan-05 15:33N 46°56' E 031°57'0 0.0
2017-Jan-05 14:33N 46°56' E 031°57'0 0.0
2017-Jan-05 13:33N 46°56' E 031°57'0 0.0
2017-Jan-05 12:33N 46°56' E 031°57'0 0.0
2017-Jan-05 11:33N 46°56' E 031°57'0 0.0
2017-Jan-05 10:33N 46°56' E 031°57'0 0.0
2017-Jan-05 09:33N 46°56' E 031°57'0 0.0
2017-Jan-05 08:33N 46°56' E 031°57'0 0.0
2017-Jan-05 07:33N 46°56' E 031°57'0 0.0
2017-Jan-05 06:33N 46°56' E 031°57'0 0.0
2017-Jan-05 05:33N 46°56' E 031°57'0 0.0
2017-Jan-05 04:33N 46°56' E 031°57'0 0.0
2017-Jan-05 03:30N 46°56' E 031°57'0 0.0
2017-Jan-05 02:30N 46°56' E 031°57'0 0.0
2017-Jan-05 01:30N 46°56' E 031°57'0 0.0
2017-Jan-05 00:30N 46°56' E 031°57'0 0.0
2017-Jan-04 23:30N 46°56' E 031°57'0 0.0
2017-Jan-04 22:30N 46°56' E 031°57'0 0.0
2017-Jan-04 21:30N 46°56' E 031°57'0 0.0
2017-Jan-03 11:33N 46°56' E 031°57'0 0.0
2017-Jan-03 10:33N 46°56' E 031°57'0 0.0
2017-Jan-03 09:33N 46°56' E 031°57'0 0.0
2017-Jan-03 08:33N 46°56' E 031°57'0 0.0
2017-Jan-03 07:33N 46°56' E 031°57'0 0.0
2017-Jan-03 06:33N 46°56' E 031°57'0 0.0
2017-Jan-03 05:33N 46°56' E 031°57'0 0.0
2017-Jan-03 04:33N 46°56' E 031°57'0 0.0
2017-Jan-03 03:33N 46°56' E 031°57'0 0.0
2017-Jan-03 02:33N 46°56' E 031°57'0 0.0
2017-Jan-03 01:33N 46°56' E 031°57'0 0.0
2017-Jan-03 00:33N 46°56' E 031°57'0 0.0
2017-Jan-02 23:33N 46°56' E 031°57'0 0.0
2017-Jan-02 22:33N 46°56' E 031°57'0 0.0
2017-Jan-02 21:33N 46°56' E 031°57'0 0.0
2017-Jan-02 20:33N 46°56' E 031°57'0 0.0
2017-Jan-02 19:33N 46°56' E 031°57'0 0.0
2017-Jan-02 18:33N 46°56' E 031°57'0 0.0
2017-Jan-02 17:33N 46°56' E 031°57'0 0.0
2017-Jan-02 16:33N 46°56' E 031°57'  

Dump ship's entire track history